Time;durP1;ratioP1;P1;durP2;ratioP2;P2;SDS_P1;SDS_P2;PMS_P1;PMS_P2;Temp;Humidity;BMP_temperature;BMP_pressure;BME280_temperature;BME280_humidity;BME280_pressure;Samples;Min_cycle;Max_cycle;Signal;HPM_P1;HPM_P2
2022/01/03 00:01:29;;;;;;;0.20;0.20;;;;;;;19.75;45.14;100819.66;5122876;28;20345;-35
2022/01/03 00:03:56;;;;;;;0.20;0.20;;;;;;;19.75;45.38;100821.63;5104594;28;20201;-36
2022/01/03 00:06:21;;;;;;;0.20;0.20;;;;;;;19.74;45.45;100831.84;5101430;28;20138;-34
2022/01/03 00:08:47;;;;;;;0.20;0.20;;;;;;;19.74;45.46;100828.25;5123968;28;20047;-34
2022/01/03 00:11:17;;;;;;;0.20;0.20;;;;;;;19.75;45.18;100824.38;5105017;28;20040;-34
2022/01/03 00:13:44;;;;;;;0.20;0.20;;;;;;;19.74;45.48;100822.72;5106291;28;20039;-34
2022/01/03 00:16:10;;;;;;;0.20;0.20;;;;;;;19.74;45.00;100823.56;5125425;28;20043;-36
2022/01/03 00:18:37;;;;;;;0.20;0.20;;;;;;;19.75;45.25;100822.44;5104761;28;20050;-36
2022/01/03 00:21:07;;;;;;;0.20;0.20;;;;;;;19.76;45.14;100831.56;5090592;28;20065;-34
2022/01/03 00:23:37;;;;;;;0.10;0.10;;;;;;;19.75;45.14;100840.97;5100353;28;20049;-34
2022/01/03 00:26:03;;;;;;;0.20;0.20;;;;;;;19.75;45.14;100833.50;5127016;28;20039;-35
2022/01/03 00:28:39;;;;;;;0.10;0.10;;;;;;;19.75;45.15;100829.91;5102402;28;20062;-35
2022/01/03 00:31:05;;;;;;;0.20;0.20;;;;;;;19.75;45.31;100835.44;5124229;28;20681;-34
2022/01/03 00:33:32;;;;;;;0.10;0.10;;;;;;;19.75;45.13;100829.91;5106293;28;20047;-34
2022/01/03 00:36:02;;;;;;;0.20;0.20;;;;;;;19.74;45.22;100837.38;5100895;28;20313;-34
2022/01/03 00:38:30;;;;;;;0.20;0.20;;;;;;;19.75;45.42;100836.25;5106308;28;20047;-34
2022/01/03 00:40:56;;;;;;;0.20;0.20;;;;;;;19.75;45.42;100835.44;5107350;28;20053;-34
2022/01/03 00:43:22;;;;;;;0.20;0.20;;;;;;;19.75;45.32;100841.78;5104131;28;20134;-34
2022/01/03 00:45:51;;;;;;;0.20;0.20;;;;;;;19.75;45.25;100849.25;5122889;28;20440;-35
2022/01/03 00:48:17;;;;;;;0.20;0.20;;;;;;;19.75;45.48;100849.25;5106741;28;20051;-34
2022/01/03 00:50:43;;;;;;;0.20;0.20;;;;;;;19.74;45.14;100855.88;5126457;28;20099;-34
2022/01/03 00:53:08;;;;;;;0.20;0.20;;;;;;;19.75;45.51;100860.28;5117117;28;20035;-36
2022/01/03 00:55:34;;;;;;;0.10;0.10;;;;;;;19.75;45.15;100861.13;5122451;28;20403;-34
2022/01/03 01:00:51;;;;;;;0.20;0.20;;;;;;;19.74;45.45;100862.25;5178033;27;20201;-34
2022/01/03 01:03:19;;;;;;;0.20;0.20;;;;;;;19.74;45.28;100862.25;5127567;27;20039;-34
2022/01/03 01:05:47;;;;;;;0.20;0.20;;;;;;;19.74;45.28;100858.66;5164372;27;20042;-34
2022/01/03 01:08:19;;;;;;;0.20;0.20;;;;;;;19.74;45.24;100856.72;5165103;27;20046;-34
2022/01/03 01:10:44;;;;;;;0.20;0.20;;;;;;;19.75;45.50;100849.25;5146211;27;20453;-34
2022/01/03 01:13:12;;;;;;;0.20;0.20;;;;;;;19.75;45.18;100854.78;5145927;27;20042;-33
2022/01/03 01:15:38;;;;;;;0.10;0.10;;;;;;;19.75;45.27;100860.28;5164530;27;20053;-34
2022/01/03 01:18:05;;;;;;;0.20;0.20;;;;;;;19.75;45.14;100866.66;5165831;27;20043;-35
2022/01/03 01:20:32;;;;;;;0.20;0.20;;;;;;;19.75;45.31;100874.13;5146384;27;20057;-34
2022/01/03 01:22:58;;;;;;;0.10;0.10;;;;;;;19.76;45.55;100867.47;5163294;27;20513;-33
2022/01/03 01:27:45;;;;;;;0.17;0.17;;;;;;;19.75;45.21;100876.88;5166660;27;20062;-34
2022/01/03 01:28:12;;;;;;;0.20;0.20;;;;;;;19.75;45.27;100866.66;5147308;27;20045;-33
2022/01/03 01:30:38;;;;;;;0.10;0.10;;;;;;;19.74;45.39;100873.28;5143709;27;20039;-36
2022/01/03 01:33:06;;;;;;;0.20;0.20;;;;;;;19.75;45.38;100880.47;5162279;27;20039;-33
2022/01/03 01:35:56;;;;;;;0.10;0.10;;;;;;;19.75;45.38;100880.47;5146759;27;20397;-34
2022/01/03 01:38:24;;;;;;;0.10;0.10;;;;;;;19.76;45.18;100878.53;5143837;27;20061;-34
2022/01/03 01:40:52;;;;;;;0.20;0.20;;;;;;;19.75;45.46;100886.00;5148030;27;20042;-33
2022/01/03 01:43:19;;;;;;;;;;;;;;;19.75;45.29;100894.28;5145298;27;20054;-33
2022/01/03 01:45:48;;;;;;;0.20;0.20;;;;;;;19.75;45.45;100887.94;5165741;27;19926;-33
2022/01/03 01:48:16;;;;;;;0.20;0.20;;;;;;;19.75;45.43;100890.69;5129493;27;20042;-34
2022/01/03 01:50:41;;;;;;;0.20;0.20;;;;;;;19.75;45.43;100879.63;5145950;27;20521;-34
2022/01/03 01:53:09;;;;;;;0.20;0.20;;;;;;;19.75;45.26;100890.69;5162329;27;20548;-33
2022/01/03 01:55:39;;;;;;;0.20;0.20;;;;;;;19.76;45.29;100895.09;5129258;27;20050;-37
2022/01/03 01:58:29;;;;;;;0.20;0.20;;;;;;;19.75;45.50;100890.69;5165176;27;20042;-34
2022/01/03 02:01:01;;;;;;;0.20;0.20;;;;;;;19.75;45.47;100888.75;5161809;27;20484;-34
2022/01/03 02:06:29;;;;;;;0.20;0.20;;;;;;;19.75;45.30;100887.94;5170353;27;20196;-33
2022/01/03 02:09:06;;;;;;;0.20;0.20;;;;;;;19.76;45.48;100900.63;5134669;27;20069;-33
2022/01/03 02:11:48;;;;;;;0.20;0.20;;;;;;;19.75;45.13;100898.97;5129840;27;20047;-34
2022/01/03 02:14:14;;;;;;;0.20;0.20;;;;;;;19.75;45.43;100910.03;5124995;27;20378;-33
2022/01/03 02:16:45;;;;;;;0.20;0.20;;;;;;;19.74;45.28;100905.63;5129026;27;20460;-33
2022/01/03 02:19:12;;;;;;;0.20;0.20;;;;;;;19.75;45.40;100905.34;5128797;27;20130;-33
2022/01/03 02:21:38;;;;;;;0.20;0.20;;;;;;;19.75;45.39;100897.03;5112631;27;20057;-33
2022/01/03 02:24:04;;;;;;;0.20;0.20;;;;;;;19.75;45.24;100899.81;5106507;27;20086;-34
2022/01/03 02:26:30;;;;;;;0.10;0.10;;;;;;;19.76;45.27;100906.97;5112113;28;20035;-33
2022/01/03 02:28:56;;;;;;;0.20;0.20;;;;;;;19.76;45.39;100903.38;5112704;27;20074;-33
2022/01/03 02:31:22;;;;;;;0.20;0.20;;;;;;;19.75;45.46;100908.09;5126501;27;20123;-34
2022/01/03 02:33:49;;;;;;;0.10;0.10;;;;;;;19.75;45.30;100908.09;5124885;27;20039;-34
2022/01/03 02:36:16;;;;;;;0.20;0.20;;;;;;;19.75;45.35;100898.97;5124686;27;20097;-34
2022/01/03 02:38:42;;;;;;;0.10;0.10;;;;;;;19.76;45.26;100897.88;5110027;27;20158;-36
2022/01/03 02:41:08;;;;;;;0.20;0.20;;;;;;;19.75;45.44;100891.50;5124216;27;20046;-33
2022/01/03 02:43:34;;;;;;;0.20;0.20;;;;;;;19.75;45.28;100890.69;5106439;28;20047;-34
2022/01/03 02:45:59;;;;;;;0.20;0.20;;;;;;;19.75;45.46;100883.22;5107935;27;20082;-34
2022/01/03 02:48:26;;;;;;;0.20;0.20;;;;;;;19.75;45.32;100883.22;5125708;27;20130;-34
2022/01/03 02:50:52;;;;;;;0.20;0.20;;;;;;;19.75;45.60;100883.22;5125386;27;20398;-35
2022/01/03 02:53:19;;;;;;;0.20;0.20;;;;;;;19.76;45.27;100889.56;5119785;27;20051;-34
2022/01/03 02:55:44;;;;;;;0.20;0.20;;;;;;;19.76;45.50;100884.03;5109053;28;20051;-34
2022/01/03 02:58:10;;;;;;;0.20;0.20;;;;;;;19.77;45.43;100894.84;5126477;27;20471;-35
2022/01/03 03:00:45;;;;;;;0.20;0.20;;;;;;;19.77;45.50;100891.22;5126495;27;20047;-35
2022/01/03 03:03:12;;;;;;;0.20;0.20;;;;;;;19.75;45.15;100891.50;5116463;27;20047;-38
2022/01/03 03:05:38;;;;;;;0.20;0.20;;;;;;;19.75;45.25;100890.69;5107387;27;20055;-34
2022/01/03 03:08:04;;;;;;;0.20;0.20;;;;;;;19.76;45.34;100889.56;5120578;27;20200;-34
2022/01/03 03:10:29;;;;;;;0.20;0.20;;;;;;;19.75;45.46;100897.03;5111084;27;20046;-33
2022/01/03 03:12:55;;;;;;;0.20;0.20;;;;;;;19.75;45.17;100891.50;5104328;27;20043;-34
2022/01/03 03:15:21;;;;;;;0.13;0.13;;;;;;;19.75;45.24;100896.22;5122511;27;20128;-35
2022/01/03 03:17:47;;;;;;;0.20;0.20;;;;;;;19.76;45.43;100895.94;5090726;28;20036;-34
2022/01/03 03:20:17;;;;;;;0.20;0.20;;;;;;;19.77;45.18;100902.28;5078779;28;20483;-34
2022/01/03 03:22:43;;;;;;;0.20;0.20;;;;;;;19.76;45.32;100893.16;5111257;28;20036;-35
2022/01/03 03:25:12;;;;;;;0.20;0.20;;;;;;;19.76;45.06;100900.63;5107743;28;20040;-34
2022/01/03 03:27:43;;;;;;;0.20;0.20;;;;;;;19.76;45.35;100898.69;5095384;28;20250;-35
2022/01/03 03:32:56;;;;;;;0.20;0.20;;;;;;;19.76;45.27;100904.22;5170964;27;20577;-34
2022/01/03 03:35:22;;;;;;;0.20;0.20;;;;;;;19.75;45.26;100894.28;5128605;27;20095;-34
2022/01/03 03:37:48;;;;;;;0.20;0.20;;;;;;;19.76;45.40;100906.97;5136923;27;20090;-34
2022/01/03 03:40:15;;;;;;;0.20;0.20;;;;;;;19.76;45.47;100912.50;5130431;27;20043;-34
2022/01/03 03:42:41;;;;;;;0.20;0.20;;;;;;;19.77;45.25;100899.50;5114925;27;20043;-34
2022/01/03 03:45:08;;;;;;;0.20;0.20;;;;;;;19.77;45.33;100910.56;5131399;27;20039;-34
2022/01/03 03:47:34;;;;;;;0.20;0.20;;;;;;;19.76;45.48;100912.50;5151245;27;20039;-34
2022/01/03 03:50:00;;;;;;;0.20;0.20;;;;;;;19.77;45.32;100907.78;5147446;27;20090;-34
2022/01/03 03:52:26;;;;;;;0.20;0.20;;;;;;;19.77;45.32;100914.19;5150966;27;20126;-34
2022/01/03 03:54:52;;;;;;;0.20;0.20;;;;;;;19.77;45.13;100910.56;5123508;27;20130;-34
2022/01/03 03:57:18;;;;;;;0.20;0.20;;;;;;;19.77;45.37;100907.78;5114520;27;20368;-34
2022/01/03 03:59:43;;;;;;;0.20;0.20;;;;;;;19.77;45.39;100910.56;5148675;27;20042;-35
2022/01/03 04:02:09;;;;;;;0.20;0.20;;;;;;;19.76;45.32;100904.22;5147190;27;20034;-34
2022/01/03 04:04:35;;;;;;;0.20;0.20;;;;;;;19.77;45.62;100914.19;5147599;27;20046;-34
2022/01/03 04:07:01;;;;;;;0.20;0.20;;;;;;;19.76;45.35;100906.16;5146353;27;20560;-34
2022/01/03 04:09:27;;;;;;;0.20;0.20;;;;;;;19.75;45.16;100902.56;5128267;27;20405;-34
2022/01/03 04:11:52;;;;;;;0.20;0.20;;;;;;;19.75;45.39;100891.50;5132517;27;20054;-35
2022/01/03 04:14:18;;;;;;;0.20;0.20;;;;;;;19.77;45.14;100899.50;5144460;27;20115;-37
2022/01/03 04:16:44;;;;;;;0.20;0.20;;;;;;;19.77;45.53;100897.59;5149325;27;20065;-39
2022/01/03 04:19:10;;;;;;;0.20;0.20;;;;;;;19.76;45.42;100895.94;5116962;27;20094;-35
2022/01/03 04:21:39;;;;;;;0.20;0.20;;;;;;;19.77;45.46;100896.75;5097472;27;20066;-35
2022/01/03 04:24:07;;;;;;;0.20;0.20;;;;;;;19.76;45.46;100895.94;5131001;27;20500;-35
2022/01/03 04:26:32;;;;;;;0.20;0.20;;;;;;;19.76;45.48;100895.09;5132311;27;20047;-35
2022/01/03 04:28:58;;;;;;;0.20;0.20;;;;;;;19.77;45.48;100897.59;5132954;27;20058;-35
2022/01/03 04:31:24;;;;;;;0.20;0.20;;;;;;;19.76;45.33;100893.16;5129973;27;20110;-34
2022/01/03 04:33:50;;;;;;;0.20;0.20;;;;;;;19.76;45.15;100900.63;5130003;27;20515;-34
2022/01/03 04:36:16;;;;;;;0.20;0.20;;;;;;;19.76;45.26;100889.56;5136068;27;20117;-34
2022/01/03 04:38:42;;;;;;;0.20;0.20;;;;;;;19.75;45.29;100888.75;5133117;27;20272;-34
2022/01/03 04:41:09;;;;;;;0.20;0.20;;;;;;;19.75;45.25;100883.22;5135433;27;20045;-36
2022/01/03 04:43:35;;;;;;;0.20;0.20;;;;;;;19.76;45.54;100884.88;5100477;28;20041;-36
2022/01/03 04:46:02;;;;;;;0.10;0.10;;;;;;;19.76;45.24;100884.88;5116750;28;20045;-34
2022/01/03 04:48:27;;;;;;;0.20;0.20;;;;;;;19.76;45.47;100892.34;5121624;28;20043;-34
2022/01/03 04:50:53;;;;;;;0.20;0.20;;;;;;;19.77;45.47;100886.53;5105454;28;20482;-34
2022/01/03 04:53:21;;;;;;;0.10;0.10;;;;;;;19.77;45.19;100889.31;5095249;28;20058;-35
2022/01/03 04:55:46;;;;;;;0.10;0.10;;;;;;;19.76;45.21;100884.88;5099710;28;20047;-34
2022/01/03 04:58:12;;;;;;;0.20;0.20;;;;;;;19.77;45.44;100882.94;5120980;28;20046;-37
2022/01/03 05:00:38;;;;;;;0.20;0.20;;;;;;;19.77;45.42;100888.44;5114558;28;20458;-36
2022/01/03 05:03:04;;;;;;;0.20;0.20;;;;;;;19.77;45.19;100892.06;5116506;28;21761;-34
2022/01/03 05:05:30;;;;;;;0.20;0.20;;;;;;;19.77;45.46;100880.16;5122570;28;20058;-34
2022/01/03 05:07:55;;;;;;;0.20;0.20;;;;;;;19.77;45.55;100874.63;5126762;28;20054;-34
2022/01/03 05:10:21;;;;;;;0.20;0.20;;;;;;;19.77;45.16;100881.03;5120734;28;20043;-36
2022/01/03 05:12:47;;;;;;;0.20;0.20;;;;;;;19.76;45.53;100884.03;5120969;28;20107;-37
2022/01/03 05:15:12;;;;;;;0.20;0.20;;;;;;;19.77;45.40;100885.69;5118016;28;20042;-34
2022/01/03 05:17:38;;;;;;;0.20;0.20;;;;;;;19.77;45.46;100891.22;5122164;28;20066;-34
2022/01/03 05:20:04;;;;;;;0.20;0.20;;;;;;;19.77;45.40;100882.94;5125713;28;20568;-34
2022/01/03 05:22:30;;;;;;;0.20;0.20;;;;;;;19.78;45.11;100887.38;5096494;28;21529;-33
2022/01/03 05:24:55;;;;;;;0.20;0.20;;;;;;;19.77;45.10;100891.22;5097405;28;20050;-36
2022/01/03 05:27:21;;;;;;;0.20;0.20;;;;;;;19.77;45.29;100882.94;5115448;28;20072;-36
2022/01/03 05:29:47;;;;;;;0.20;0.20;;;;;;;19.76;45.32;100873.81;5113130;28;20084;-34
2022/01/03 05:32:12;;;;;;;0.20;0.20;;;;;;;19.76;45.27;100881.28;5121426;28;20052;-34
2022/01/03 05:34:38;;;;;;;0.20;0.20;;;;;;;19.76;45.34;100887.63;5117740;28;20367;-36
2022/01/03 05:37:04;;;;;;;0.20;0.20;;;;;;;19.77;45.43;100882.94;5119878;28;20099;-35
2022/01/03 05:39:29;;;;;;;0.20;0.20;;;;;;;19.77;45.37;100872.72;5121056;28;20096;-34
2022/01/03 05:41:55;;;;;;;0.20;0.20;;;;;;;19.77;45.20;100877.41;5114595;28;20047;-36
2022/01/03 05:44:21;;;;;;;0.20;0.20;;;;;;;19.77;45.64;100874.63;5117035;28;20047;-34
2022/01/03 05:46:46;;;;;;;0.20;0.20;;;;;;;19.77;45.26;100878.25;5117550;28;20054;-35
2022/01/03 05:49:12;;;;;;;0.10;0.10;;;;;;;19.77;45.39;100869.13;5118580;28;20043;-34
2022/01/03 05:51:38;;;;;;;0.20;0.20;;;;;;;19.78;45.36;100868.03;5117466;28;20035;-37
2022/01/03 05:54:04;;;;;;;0.20;0.20;;;;;;;19.77;45.56;100856.16;5113822;28;20089;-38
2022/01/03 05:56:31;;;;;;;0.10;0.10;;;;;;;19.77;45.44;100855.28;5102842;28;20040;-34
2022/01/03 05:58:56;;;;;;;0.20;0.20;;;;;;;19.77;45.26;100855.28;5115097;28;20143;-34
2022/01/03 06:01:23;;;;;;;0.20;0.20;;;;;;;19.76;45.37;100851.72;5123501;27;20385;-37
2022/01/03 06:03:58;;;;;;;0.20;0.20;;;;;;;19.77;45.23;100847.00;5123361;27;20043;-39
2022/01/03 06:06:56;;;;;;;0.10;0.10;;;;;;;19.76;45.64;100843.41;5102343;28;20385;-37
2022/01/03 06:09:11;;;;;;;0.20;0.20;;;;;;;19.76;45.13;100843.41;5087336;28;20115;-34
2022/01/03 06:11:37;;;;;;;0.20;0.20;;;;;;;19.77;45.22;100845.09;5118857;28;20062;-35
2022/01/03 06:14:02;;;;;;;0.20;0.20;;;;;;;19.78;45.47;100835.69;5117509;28;20096;-37
2022/01/03 06:16:28;;;;;;;0.20;0.20;;;;;;;19.78;45.20;100838.44;5117550;28;20040;-37
2022/01/03 06:18:54;;;;;;;0.17;0.17;;;;;;;19.76;45.43;100826.03;5118887;28;20134;-36
2022/01/03 06:21:20;;;;;;;0.20;0.20;;;;;;;19.78;45.21;100835.69;5119017;28;20049;-35
2022/01/03 06:23:46;;;;;;;0.20;0.20;;;;;;;19.77;45.17;100833.19;5114947;28;20401;-37
2022/01/03 06:26:12;;;;;;;0.10;0.10;;;;;;;19.77;45.26;100833.19;5115999;28;20382;-35
2022/01/03 06:28:38;;;;;;;0.20;0.20;;;;;;;19.77;45.51;100825.75;5097735;28;20546;-34
2022/01/03 06:31:03;;;;;;;0.20;0.20;;;;;;;19.77;45.15;100828.50;5117033;28;20043;-36
2022/01/03 06:33:29;;;;;;;0.20;0.20;;;;;;;19.78;45.23;100827.41;5114587;28;20061;-34
2022/01/03 06:35:55;;;;;;;0.20;0.20;;;;;;;19.76;45.43;100832.38;5119766;28;20572;-34
2022/01/03 06:38:20;;;;;;;0.20;0.20;;;;;;;19.77;45.09;100833.19;5118181;28;20043;-34
2022/01/03 06:40:46;;;;;;;0.10;0.10;;;;;;;19.79;45.03;100836.50;5118665;28;20051;-34
2022/01/03 06:43:12;;;;;;;0.20;0.20;;;;;;;19.78;45.43;100829.34;5113990;28;20395;-35
2022/01/03 06:45:37;;;;;;;0.20;0.20;;;;;;;19.78;45.50;100829.34;5116592;28;20150;-34
2022/01/03 06:48:03;;;;;;;0.20;0.20;;;;;;;19.78;45.16;100832.09;5113698;28;20513;-34
2022/01/03 06:50:30;;;;;;;0.20;0.20;;;;;;;19.77;45.41;100833.19;5117145;28;20050;-34
2022/01/03 06:52:57;;;;;;;0.20;0.20;;;;;;;19.77;45.29;100823.00;5115434;28;20062;-36
2022/01/03 06:55:23;;;;;;;0.20;0.20;;;;;;;19.78;45.22;100827.41;5112964;28;20044;-35
2022/01/03 06:57:49;;;;;;;0.20;0.20;;;;;;;19.77;45.43;100831.28;5116391;28;20394;-36
2022/01/03 07:00:15;;;;;;;0.20;0.20;;;;;;;19.77;45.37;100836.81;5104244;28;20046;-35
2022/01/03 07:02:42;;;;;;;0.20;0.20;;;;;;;19.78;45.16;100832.09;5118405;27;20142;-35
2022/01/03 07:05:09;;;;;;;0.10;0.10;;;;;;;19.78;45.25;100821.06;5116602;28;20442;-34
2022/01/03 07:07:35;;;;;;;0.20;0.20;;;;;;;19.77;45.38;100823.00;5100523;28;20131;-35
2022/01/03 07:10:01;;;;;;;0.20;0.20;;;;;;;19.77;45.04;100822.13;5098814;28;20047;-34
2022/01/03 07:12:26;;;;;;;0.20;0.20;;;;;;;19.78;45.34;100830.16;5117133;28;20053;-35
2022/01/03 07:20:16;;;;;;;0.20;0.20;;;;;;;19.78;45.30;100812.75;5130409;27;20042;-34
2022/01/03 07:22:42;;;;;;;0.20;0.20;;;;;;;19.77;45.47;100817.47;5148002;27;20123;-37
2022/01/03 07:25:08;;;;;;;0.20;0.20;;;;;;;19.77;45.31;100820.22;5146523;27;20389;-34
2022/01/03 07:27:34;;;;;;;0.20;0.20;;;;;;;19.78;45.22;100818.28;5124463;27;20045;-34
2022/01/03 07:30:00;;;;;;;0.20;0.20;;;;;;;19.78;45.42;100818.28;5133318;27;20040;-34
2022/01/03 07:32:25;;;;;;;0.20;0.20;;;;;;;19.78;45.29;100818.28;5150947;27;20092;-34
2022/01/03 07:34:51;;;;;;;0.20;0.20;;;;;;;19.78;45.16;100821.06;5143046;27;20068;-34
2022/01/03 07:37:18;;;;;;;0.20;0.20;;;;;;;19.79;45.40;100817.16;5146894;27;20055;-34
2022/01/03 07:39:43;;;;;;;0.20;0.20;;;;;;;19.78;45.04;100827.41;5146625;27;20047;-34
2022/01/03 07:42:09;;;;;;;0.20;0.20;;;;;;;19.77;45.17;100834.03;5155067;27;20046;-34
2022/01/03 07:44:35;;;;;;;0.20;0.20;;;;;;;19.78;45.50;100821.06;5123134;27;20165;-34
2022/01/03 07:47:02;;;;;;;0.20;0.20;;;;;;;19.78;45.37;100818.28;5151173;27;20078;-34
2022/01/03 07:49:28;;;;;;;0.10;0.10;;;;;;;19.77;45.57;100822.13;5133999;27;20523;-35
2022/01/03 07:51:53;;;;;;;0.10;0.10;;;;;;;19.78;45.16;100829.34;5148693;27;20043;-34
2022/01/03 07:54:19;;;;;;;0.17;0.17;;;;;;;19.78;45.28;100826.56;5140557;27;20456;-34
2022/01/03 07:56:45;;;;;;;0.20;0.20;;;;;;;19.78;45.25;100827.41;5144544;27;20043;-34
2022/01/03 07:59:10;;;;;;;0.20;0.20;;;;;;;19.78;45.38;100824.63;5145425;27;20038;-36
2022/01/03 08:01:37;;;;;;;0.20;0.20;;;;;;;19.78;45.17;100821.06;5153936;27;20487;-34
2022/01/03 08:04:03;;;;;;;0.20;0.20;;;;;;;19.79;45.31;100830.97;5124758;27;20053;-36
2022/01/03 08:06:45;;;;;;;0.20;0.20;;;;;;;19.78;45.44;100830.16;5153566;27;20043;-34
2022/01/03 08:09:11;;;;;;;0.17;0.17;;;;;;;19.78;45.13;100827.41;5147386;27;20041;-40
2022/01/03 08:11:37;;;;;;;0.20;0.20;;;;;;;19.77;45.19;100831.28;5133028;27;20051;-34
2022/01/03 08:14:02;;;;;;;0.10;0.10;;;;;;;19.79;45.18;100839.28;5121528;27;20043;-36
2022/01/03 08:16:28;;;;;;;0.17;0.17;;;;;;;19.79;45.40;100840.09;5149030;27;20332;-35
2022/01/03 08:18:54;;;;;;;0.20;0.20;;;;;;;19.79;45.40;100842.84;5141690;27;20116;-34
2022/01/03 08:21:19;;;;;;;0.20;0.20;;;;;;;19.79;45.38;100839.28;5132137;27;20066;-34
2022/01/03 08:23:45;;;;;;;0.20;0.20;;;;;;;19.78;45.32;100840.41;5130706;27;20045;-34
2022/01/03 08:26:11;;;;;;;0.20;0.20;;;;;;;19.78;45.36;100843.16;5139937;27;20362;-35
2022/01/03 08:28:42;;;;;;;0.20;0.20;;;;;;;19.78;45.55;100838.44;5117654;27;20036;-34
2022/01/03 08:31:07;;;;;;;0.20;0.20;;;;;;;19.78;45.03;100837.63;5123020;28;20043;-34
2022/01/03 08:33:33;;;;;;;0.20;0.20;;;;;;;19.77;45.10;100830.44;5120316;28;20051;-34
2022/01/03 08:36:00;;;;;;;0.20;0.20;;;;;;;19.80;45.05;100829.88;5117037;28;20451;-34
2022/01/03 08:38:26;;;;;;;0.20;0.20;;;;;;;19.79;45.18;100837.34;5115890;28;20048;-34
2022/01/03 08:40:52;;;;;;;0.20;0.20;;;;;;;19.78;45.54;100841.22;5119768;28;20044;-34
2022/01/03 08:43:17;;;;;;;0.20;0.20;;;;;;;19.78;45.31;100835.69;5118317;28;20055;-34
2022/01/03 08:45:43;;;;;;;0.20;0.20;;;;;;;19.78;45.39;100832.09;5117855;28;20138;-34
2022/01/03 08:48:09;;;;;;;0.15;0.15;;;;;;;19.78;45.37;100838.44;5117333;28;20046;-36
2022/01/03 08:50:34;;;;;;;0.20;0.20;;;;;;;19.79;45.30;100833.75;5117505;28;20067;-34
2022/01/03 08:53:01;;;;;;;0.20;0.20;;;;;;;19.79;45.25;100815.22;5118346;28;20410;-34
2022/01/03 08:55:27;;;;;;;0.20;0.20;;;;;;;19.78;45.04;100816.34;5114878;28;20085;-34
2022/01/03 08:57:53;;;;;;;0.20;0.20;;;;;;;19.79;45.18;100815.22;5116276;28;20054;-34
2022/01/03 09:00:19;;;;;;;0.20;0.20;;;;;;;19.79;45.16;100819.94;5121243;28;20104;-35
2022/01/03 09:02:45;;;;;;;0.20;0.20;;;;;;;19.79;45.39;100829.03;5102731;28;20040;-34
2022/01/03 09:05:11;;;;;;;0.15;0.15;;;;;;;19.78;45.25;100827.41;5097101;28;20035;-34
2022/01/03 09:07:37;;;;;;;0.20;0.20;;;;;;;19.79;45.07;100822.69;5113897;28;20493;-34
2022/01/03 09:10:04;;;;;;;0.20;0.20;;;;;;;19.79;45.16;100822.69;5120175;28;20047;-34
2022/01/03 09:12:30;;;;;;;0.20;0.20;;;;;;;19.79;45.46;100828.22;5080073;28;20195;-35
2022/01/03 09:14:55;;;;;;;0.20;0.20;;;;;;;19.79;45.15;100822.69;5116796;28;20444;-34
2022/01/03 09:17:21;;;;;;;0.20;0.20;;;;;;;19.79;45.38;100817.16;5117948;28;20044;-34
2022/01/03 09:19:47;;;;;;;0.20;0.20;;;;;;;19.78;45.12;100816.34;5115390;28;20464;-34
2022/01/03 09:22:21;;;;;;;0.20;0.20;;;;;;;19.78;45.31;100823.81;5100832;28;20043;-34
2022/01/03 09:30:27;;;;;;;0.20;0.20;;;;;;;19.79;45.46;100828.22;5141327;27;20043;-34
2022/01/03 09:32:53;;;;;;;0.20;0.20;;;;;;;19.79;45.33;100830.97;5164046;27;20090;-34
2022/01/03 09:35:18;;;;;;;0.20;0.20;;;;;;;19.78;45.29;100835.69;5162525;27;20038;-35
2022/01/03 09:37:44;;;;;;;0.20;0.20;;;;;;;19.78;45.16;100830.16;5164921;27;20216;-34
2022/01/03 09:40:10;;;;;;;0.20;0.20;;;;;;;19.79;45.36;100839.28;5165095;27;20049;-34
2022/01/03 09:42:35;;;;;;;0.20;0.20;;;;;;;19.78;45.11;100832.91;5166077;27;20276;-34
2022/01/03 09:45:03;;;;;;;0.20;0.20;;;;;;;19.80;45.13;100838.97;5162260;27;20076;-36
2022/01/03 09:47:31;;;;;;;0.20;0.20;;;;;;;19.79;45.36;100837.34;5162663;27;20047;-34
2022/01/03 09:49:58;;;;;;;0.20;0.20;;;;;;;19.79;45.32;100837.34;5165068;27;20043;-34
2022/01/03 09:52:25;;;;;;;0.20;0.20;;;;;;;19.79;45.15;100840.09;5165667;27;20042;-34
2022/01/03 09:54:51;;;;;;;0.15;0.15;;;;;;;19.79;45.45;100831.81;5162027;27;20046;-34
2022/01/03 09:57:19;;;;;;;0.20;0.20;;;;;;;19.79;45.46;100826.28;5164464;27;20042;-34
2022/01/03 09:59:45;;;;;;;0.20;0.20;;;;;;;19.79;45.18;100833.75;5160083;27;20366;-34
2022/01/03 10:02:12;;;;;;;0.20;0.20;;;;;;;19.79;45.40;100822.69;5162181;27;20070;-34
2022/01/03 10:04:38;;;;;;;0.20;0.20;;;;;;;19.79;45.29;100833.75;5163259;27;20035;-36
2022/01/03 10:07:03;;;;;;;0.20;0.20;;;;;;;19.79;45.25;100825.47;5165249;27;20042;-34
2022/01/03 10:09:29;;;;;;;0.20;0.20;;;;;;;19.79;45.25;100803.34;5163842;27;20106;-34
2022/01/03 10:11:56;;;;;;;0.20;0.20;;;;;;;19.79;45.23;100819.94;5162444;27;20038;-35
2022/01/03 10:14:21;;;;;;;0.20;0.20;;;;;;;19.80;45.44;100818.81;5163177;27;20442;-34
2022/01/03 10:16:49;;;;;;;0.20;0.20;;;;;;;19.81;45.34;100814.94;5164106;27;21394;-34
2022/01/03 10:19:23;;;;;;;0.20;0.20;;;;;;;19.80;45.27;100813.28;5142947;27;20039;-35
2022/01/03 10:21:51;;;;;;;0.20;0.20;;;;;;;19.79;45.40;100809.69;5123763;27;20385;-34
2022/01/03 10:24:19;;;;;;;0.20;0.20;;;;;;;19.80;45.02;100819.63;5123054;27;20038;-34
2022/01/03 10:26:52;;;;;;;0.20;0.20;;;;;;;19.78;45.12;100810.81;5143904;27;20474;-35
2022/01/03 10:29:21;;;;;;;0.10;0.10;;;;;;;19.79;45.10;100804.16;5119990;27;20122;-35
2022/01/03 10:31:49;;;;;;;0.17;0.17;;;;;;;19.80;45.38;100803.06;5141782;27;20095;-36
2022/01/03 10:34:17;;;;;;;0.20;0.20;;;;;;;19.80;45.30;100794.75;5122502;27;20039;-35
2022/01/03 10:36:45;;;;;;;0.10;0.10;;;;;;;19.80;45.32;100802.22;5142375;27;20054;-36
2022/01/03 10:39:20;;;;;;;0.20;0.20;;;;;;;19.79;45.45;100797.81;5089658;28;20047;-35
2022/01/03 10:41:48;;;;;;;0.20;0.20;;;;;;;19.79;45.47;100790.34;5108898;28;20372;-34
2022/01/03 10:44:35;;;;;;;0.10;0.10;;;;;;;19.80;45.14;100789.22;5128631;28;20043;-37
2022/01/03 10:47:03;;;;;;;0.20;0.20;;;;;;;19.80;45.37;100780.94;5128488;28;20043;-35
2022/01/03 10:49:29;;;;;;;0.20;0.20;;;;;;;19.80;45.31;100786.47;5127793;28;20447;-35
2022/01/03 10:52:11;;;;;;;0.20;0.20;;;;;;;19.79;45.54;100786.78;5127641;28;20082;-35
2022/01/03 10:54:36;;;;;;;0.20;0.20;;;;;;;19.79;45.37;100782.06;5104955;28;20193;-37
2022/01/03 10:57:03;;;;;;;0.20;0.20;;;;;;;19.80;45.12;100777.34;5129762;28;20074;-35
2022/01/03 10:59:31;;;;;;;0.10;0.10;;;;;;;19.80;45.26;100775.41;5128418;27;20405;-34
2022/01/03 11:04:46;;;;;;;0.20;0.20;;;;;;;19.80;45.08;100763.53;5168788;27;20128;-35
2022/01/03 11:12:38;;;;;;;0.10;0.10;;;;;;;19.79;45.44;100768.25;5159645;27;20194;-34
2022/01/03 11:15:19;;;;;;;0.20;0.20;;;;;;;19.80;45.04;100758.84;5154685;27;20039;-34
2022/01/03 11:17:47;;;;;;;0.20;0.20;;;;;;;19.80;45.19;100758.00;5160808;27;20039;-34
2022/01/03 11:20:21;;;;;;;0.20;0.20;;;;;;;19.79;45.12;100748.09;5157605;27;20633;-35
2022/01/03 11:22:49;;;;;;;0.20;0.20;;;;;;;19.81;45.04;100759.66;5137469;27;20035;-34
2022/01/03 11:25:14;;;;;;;0.20;0.20;;;;;;;19.80;45.54;100749.72;5137716;27;20034;-34
2022/01/03 11:27:40;;;;;;;0.17;0.17;;;;;;;19.79;45.37;100751.66;5138958;27;20046;-35
2022/01/03 11:30:09;;;;;;;0.20;0.20;;;;;;;19.80;45.44;100741.44;5156059;27;20043;-34
2022/01/03 11:32:38;;;;;;;0.20;0.20;;;;;;;19.80;45.21;100735.91;5139762;27;20055;-34
2022/01/03 11:35:05;;;;;;;0.10;0.10;;;;;;;19.81;45.06;100723.72;5133763;27;20045;-34
2022/01/03 11:37:33;;;;;;;0.10;0.10;;;;;;;19.80;45.15;100706.34;5139998;27;20034;-34
2022/01/03 11:39:59;;;;;;;;;;;;;;;19.80;45.15;100698.03;5136320;27;20426;-34
2022/01/03 11:42:25;;;;;;;0.20;0.20;;;;;;;19.80;45.18;100705.50;5143358;27;19971;-35
2022/01/03 11:44:51;;;;;;;0.20;0.20;;;;;;;19.80;45.32;100706.34;5135081;27;20389;-35
2022/01/03 11:47:18;;;;;;;0.20;0.20;;;;;;;19.80;45.06;100706.34;5138825;27;20105;-35
2022/01/03 11:49:44;;;;;;;0.20;0.20;;;;;;;19.81;45.17;100701.63;5159641;27;20038;-34
2022/01/03 11:52:14;;;;;;;0.20;0.20;;;;;;;19.81;45.37;100696.09;5155075;27;20057;-34
2022/01/03 11:54:41;;;;;;;0.20;0.20;;;;;;;19.81;45.11;100701.63;5156504;27;20072;-34